< < Back
Terminal Aerodrome Forecast


Current Version              Previous Versions:   1  2  3  4  5  6  7  8  9  

Terminal Aerodrome Forecast

725
FTUS42 KJAX 312347
TAFGNV
TAF
KGNV 312347Z 0100/0124 07007KT P6SM BKN250
     FM010300 06002KT P6SM BKN250
     FM011400 14008KT P6SM BKN250
     FM011600 16012G18KT P6SM SCT040 BKN250=

Latest METAR

276
SAUS70 KWBC 011300 RRS
MTRGNV
METAR KGNV 011253Z 00000KT 10SM SCT070 08/07 A3025 RMK AO2 SLP245
T00780072


USA.gov is the U.S. government's official web portal to all federal, state and local government web resources and services.